createdAt,value
2024-02-29T00:00:28.326Z,100.95
2024-02-29T00:01:01.829Z,99.13
2024-02-29T00:01:35.119Z,98.10
2024-02-29T00:02:08.320Z,101.20
2024-02-29T00:02:41.694Z,99.07
2024-02-29T00:03:14.875Z,101.47
2024-02-29T00:03:48.242Z,101.43
2024-02-29T00:04:21.640Z,100.28
2024-02-29T00:04:55.050Z,99.93
2024-02-29T00:05:28.203Z,99.75
2024-02-29T00:06:01.584Z,100.65
2024-02-29T00:06:35.943Z,101.75
2024-02-29T00:07:10.348Z,100.20
2024-02-29T00:07:44.621Z,100.28
2024-02-29T00:08:17.886Z,98.40
2024-02-29T00:08:51.162Z,100.85
2024-02-29T00:09:24.642Z,101.95
2024-02-29T00:09:57.860Z,99.70
2024-02-29T00:10:31.217Z,99.68
2024-02-29T00:11:06.923Z,101.20
2024-02-29T00:11:40.247Z,99.88
2024-02-29T00:12:13.712Z,101.43
2024-02-29T00:12:46.970Z,98.93
2024-02-29T00:13:20.066Z,100.43
2024-02-29T00:13:54.409Z,100.25
2024-02-29T00:14:28.467Z,101.40
2024-02-29T00:15:01.680Z,100.10
2024-02-29T00:15:35.055Z,101.00
2024-02-29T00:16:08.654Z,99.22
2024-02-29T00:16:44.966Z,100.93
2024-02-29T00:17:18.044Z,101.35
2024-02-29T00:17:51.412Z,101.55
2024-02-29T00:18:24.911Z,99.03
2024-02-29T00:18:58.103Z,101.57
2024-02-29T00:19:33.313Z,100.18
2024-02-29T00:20:10.550Z,101.03
2024-02-29T00:20:43.877Z,100.28
2024-02-29T00:21:17.160Z,102.05
2024-02-29T00:21:50.939Z,99.07
2024-02-29T00:22:24.253Z,102.00
2024-02-29T00:22:57.740Z,100.45
2024-02-29T00:23:31.090Z,101.45
2024-02-29T00:24:04.819Z,100.53
2024-02-29T00:24:38.395Z,101.78
2024-02-29T00:25:13.440Z,99.85
2024-02-29T00:25:46.667Z,101.47
2024-02-29T00:26:20.045Z,101.53
2024-02-29T00:26:53.137Z,100.80
2024-02-29T00:27:27.328Z,102.25
2024-02-29T00:28:00.351Z,103.05
2024-02-29T00:28:33.584Z,102.07
2024-02-29T00:29:07.374Z,102.00
2024-02-29T00:29:40.587Z,100.25
2024-02-29T00:30:14.036Z,102.65
2024-02-29T00:30:48.878Z,102.60
2024-02-29T00:31:22.955Z,102.50
2024-02-29T00:32:02.542Z,102.00
2024-02-29T00:32:36.795Z,102.95
2024-02-29T00:33:10.135Z,100.78
2024-02-29T00:33:43.556Z,102.75
2024-02-29T00:34:16.918Z,101.90
2024-02-29T00:34:50.830Z,101.30
2024-02-29T00:35:24.604Z,102.28
2024-02-29T00:36:08.869Z,100.40
2024-02-29T00:36:43.593Z,102.95
2024-02-29T00:37:17.183Z,102.30
2024-02-29T00:37:51.161Z,103.53
2024-02-29T00:38:24.433Z,101.40
2024-02-29T00:39:05.984Z,104.18
2024-02-29T00:39:45.233Z,104.47
2024-02-29T00:40:18.576Z,102.50
2024-02-29T00:40:51.687Z,103.47
2024-02-29T00:41:24.964Z,100.88
2024-02-29T00:41:58.275Z,101.10
2024-02-29T00:42:31.644Z,102.95
2024-02-29T00:43:05.635Z,102.72
2024-02-29T00:43:39.827Z,103.45
2024-02-29T00:44:13.000Z,103.88
2024-02-29T00:44:46.515Z,100.18
2024-02-29T00:45:20.487Z,106.38
2024-02-29T00:45:53.926Z,101.93
2024-02-29T00:46:27.245Z,101.80
2024-02-29T00:47:01.159Z,101.40
2024-02-29T00:47:34.459Z,102.35
2024-02-29T00:48:08.064Z,105.05
2024-02-29T00:48:41.477Z,101.22
2024-02-29T00:49:18.011Z,103.47
2024-02-29T00:49:51.433Z,104.68
2024-02-29T00:50:24.823Z,101.90
2024-02-29T00:50:57.894Z,103.25
2024-02-29T00:51:31.123Z,104.18
2024-02-29T00:52:04.693Z,102.13
2024-02-29T00:52:39.589Z,104.40
2024-02-29T00:53:12.855Z,103.35
2024-02-29T00:53:46.135Z,103.68
2024-02-29T00:54:19.447Z,104.60
2024-02-29T00:54:52.923Z,103.30
2024-02-29T00:55:26.286Z,103.68
2024-02-29T00:55:59.564Z,102.30
2024-02-29T00:56:32.985Z,101.18
2024-02-29T00:57:06.428Z,103.35
2024-02-29T00:57:39.967Z,102.82
2024-02-29T00:58:13.467Z,102.47
2024-02-29T00:58:46.903Z,102.60
2024-02-29T00:59:20.069Z,102.90
2024-02-29T00:59:53.247Z,102.47
2024-02-29T01:00:28.063Z,103.28
2024-02-29T01:01:01.926Z,103.47
2024-02-29T01:01:35.303Z,104.63
2024-02-29T01:02:08.616Z,103.22
2024-02-29T01:02:41.793Z,102.70
2024-02-29T01:03:15.591Z,102.65
2024-02-29T01:03:48.830Z,100.95
2024-02-29T01:04:22.255Z,104.68
2024-02-29T01:04:55.938Z,101.22
2024-02-29T01:05:29.228Z,104.20
2024-02-29T01:06:02.602Z,105.40
2024-02-29T01:06:36.033Z,103.93
2024-02-29T01:07:09.507Z,102.38
2024-02-29T01:07:42.859Z,102.18
2024-02-29T01:08:16.659Z,103.28
2024-02-29T01:08:51.471Z,103.80
2024-02-29T01:09:29.014Z,101.60
2024-02-29T01:10:03.257Z,105.28
2024-02-29T01:10:36.627Z,104.40
2024-02-29T01:11:09.729Z,103.65
2024-02-29T01:11:43.182Z,105.85
2024-02-29T01:12:16.465Z,101.78
2024-02-29T01:12:49.769Z,104.10
2024-02-29T01:13:23.031Z,104.03
2024-02-29T01:13:56.308Z,103.43
2024-02-29T01:14:29.480Z,104.97
2024-02-29T01:15:02.571Z,103.53
2024-02-29T01:15:36.587Z,103.75
2024-02-29T01:16:10.134Z,103.32
2024-02-29T01:16:43.428Z,103.70
2024-02-29T01:17:16.604Z,104.60
2024-02-29T01:17:52.002Z,103.70
2024-02-29T01:18:25.520Z,102.28
2024-02-29T01:18:59.585Z,102.85
2024-02-29T01:19:33.107Z,103.65
2024-02-29T01:20:06.685Z,102.88
2024-02-29T01:20:39.967Z,102.80
2024-02-29T01:21:13.350Z,103.68
2024-02-29T01:21:46.787Z,102.65
2024-02-29T01:22:20.266Z,102.93
2024-02-29T01:22:53.404Z,107.55
2024-02-29T01:23:26.799Z,103.38
2024-02-29T01:23:59.974Z,103.57
2024-02-29T01:24:33.096Z,104.30
2024-02-29T01:25:06.945Z,103.70
2024-02-29T01:25:40.412Z,102.68
2024-02-29T01:26:13.694Z,102.55
2024-02-29T01:26:46.872Z,104.00
2024-02-29T01:27:20.150Z,101.45
2024-02-29T01:27:53.606Z,105.85
2024-02-29T01:28:26.921Z,105.80
2024-02-29T01:29:00.092Z,105.18
2024-02-29T01:29:33.274Z,104.65
2024-02-29T01:30:07.169Z,105.88
2024-02-29T01:30:40.473Z,104.18
2024-02-29T01:31:13.768Z,104.22
2024-02-29T01:31:47.055Z,103.57
2024-02-29T01:32:26.405Z,103.20
2024-02-29T01:33:01.369Z,108.53
2024-02-29T01:33:34.986Z,107.32
2024-02-29T01:34:08.246Z,107.75
2024-02-29T01:34:41.728Z,108.07
2024-02-29T01:35:16.636Z,107.13
2024-02-29T01:35:49.813Z,107.25
2024-02-29T01:36:22.977Z,106.28
2024-02-29T01:36:56.322Z,107.40
2024-02-29T01:37:29.740Z,105.40
2024-02-29T01:38:03.753Z,108.55
2024-02-29T01:38:37.024Z,107.22
2024-02-29T01:39:10.526Z,107.40
2024-02-29T01:39:44.015Z,107.80
2024-02-29T01:40:20.040Z,107.25
2024-02-29T01:40:53.725Z,106.93
2024-02-29T01:41:27.100Z,108.80
2024-02-29T01:42:00.286Z,108.57
2024-02-29T01:42:33.733Z,108.32
2024-02-29T01:43:07.108Z,106.78
2024-02-29T01:43:50.464Z,105.75
2024-02-29T01:44:24.062Z,106.85
2024-02-29T01:44:57.853Z,109.45
2024-02-29T01:45:31.134Z,108.15
2024-02-29T01:46:07.229Z,108.18
2024-02-29T01:46:40.982Z,107.63
2024-02-29T01:47:14.762Z,107.85
2024-02-29T01:47:48.170Z,108.43
2024-02-29T01:48:21.426Z,107.20
2024-02-29T01:48:55.657Z,107.88
2024-02-29T01:49:29.520Z,107.80
2024-02-29T01:50:06.585Z,108.00
2024-02-29T01:50:40.070Z,106.35
2024-02-29T01:51:13.454Z,108.40
2024-02-29T01:51:46.990Z,108.18
2024-02-29T01:52:21.776Z,107.60
2024-02-29T01:52:54.940Z,108.45
2024-02-29T01:53:28.214Z,105.25
2024-02-29T01:54:01.605Z,108.65
2024-02-29T01:54:34.896Z,107.18
2024-02-29T01:55:08.640Z,107.78
2024-02-29T01:55:41.963Z,106.28
2024-02-29T01:56:15.434Z,107.55
2024-02-29T01:56:48.713Z,107.72
2024-02-29T01:57:22.213Z,106.95
2024-02-29T01:57:55.741Z,102.85
2024-02-29T01:58:29.164Z,103.57
2024-02-29T01:59:02.961Z,103.82
2024-02-29T01:59:37.376Z,106.20
2024-02-29T02:00:10.847Z,106.30
2024-02-29T02:00:45.344Z,104.78
2024-02-29T02:01:19.078Z,104.07
2024-02-29T02:01:52.712Z,103.90
2024-02-29T02:02:26.016Z,104.53
2024-02-29T02:02:59.296Z,105.18
2024-02-29T02:03:32.622Z,102.85
2024-02-29T02:04:06.200Z,105.38
2024-02-29T02:04:40.470Z,105.20
2024-02-29T02:05:13.795Z,106.75
2024-02-29T02:05:47.193Z,105.32
2024-02-29T02:06:20.617Z,105.03
2024-02-29T02:06:53.822Z,105.25
2024-02-29T02:07:27.696Z,104.78
2024-02-29T02:08:01.179Z,104.55
2024-02-29T02:08:34.876Z,106.47
2024-02-29T02:09:08.202Z,102.20
2024-02-29T02:09:44.104Z,105.15
2024-02-29T02:10:18.136Z,103.65
2024-02-29T02:10:51.910Z,106.47
2024-02-29T02:11:25.190Z,104.72
2024-02-29T02:11:58.539Z,107.22
2024-02-29T02:12:31.665Z,104.60
2024-02-29T02:13:05.174Z,106.50
2024-02-29T02:13:38.582Z,106.35
2024-02-29T02:14:11.867Z,105.72
2024-02-29T02:14:44.949Z,105.13
2024-02-29T02:15:18.226Z,104.00
2024-02-29T02:15:53.375Z,105.88
2024-02-29T02:16:26.734Z,106.45
2024-02-29T02:16:59.933Z,105.32
2024-02-29T02:17:33.971Z,106.55
2024-02-29T02:18:07.439Z,104.60
2024-02-29T02:18:40.803Z,106.28
2024-02-29T02:19:14.578Z,106.10
2024-02-29T02:19:48.248Z,107.13
2024-02-29T02:20:22.377Z,104.97
2024-02-29T02:20:58.514Z,107.72
2024-02-29T02:21:32.700Z,106.03
2024-02-29T02:22:06.746Z,107.05
2024-02-29T02:22:40.180Z,104.38
2024-02-29T02:23:13.361Z,105.95
2024-02-29T02:23:46.844Z,104.13
2024-02-29T02:24:22.490Z,105.72
2024-02-29T02:24:55.813Z,105.90
2024-02-29T02:25:29.248Z,105.75
2024-02-29T02:26:02.443Z,103.38
2024-02-29T02:26:35.909Z,107.30
2024-02-29T02:27:09.085Z,105.50
2024-02-29T02:27:42.443Z,103.85
2024-02-29T02:28:16.012Z,104.35
2024-02-29T02:28:49.543Z,106.18
2024-02-29T02:29:22.622Z,105.35
2024-02-29T02:29:55.897Z,107.82
2024-02-29T02:30:29.085Z,107.93
2024-02-29T02:31:02.327Z,108.95
2024-02-29T02:31:36.351Z,107.40
2024-02-29T02:32:09.534Z,105.75
2024-02-29T02:32:42.813Z,104.95
2024-02-29T02:33:16.153Z,107.63
2024-02-29T02:33:49.445Z,104.15
2024-02-29T02:34:22.749Z,108.20
2024-02-29T02:34:56.033Z,104.93
2024-02-29T02:35:29.107Z,107.63
2024-02-29T02:36:02.391Z,106.60
2024-02-29T02:36:36.101Z,107.90
2024-02-29T02:37:09.528Z,104.30
2024-02-29T02:37:42.641Z,104.65
2024-02-29T02:38:15.917Z,105.18
2024-02-29T02:38:49.100Z,105.50
2024-02-29T02:39:22.481Z,104.75
2024-02-29T02:39:55.804Z,105.65
2024-02-29T02:40:30.471Z,103.40
2024-02-29T02:41:03.655Z,104.05
2024-02-29T02:41:36.930Z,104.15
2024-02-29T02:42:10.319Z,105.22
2024-02-29T02:42:43.507Z,104.88
2024-02-29T02:43:16.701Z,105.10
2024-02-29T02:43:53.335Z,103.68
2024-02-29T02:44:26.815Z,105.30
2024-02-29T02:44:59.988Z,105.05
2024-02-29T02:45:33.482Z,105.28
2024-02-29T02:46:06.645Z,103.65
2024-02-29T02:46:40.029Z,105.15
2024-02-29T02:47:13.421Z,106.18
2024-02-29T02:47:46.640Z,106.18
2024-02-29T02:48:22.131Z,102.57
2024-02-29T02:48:55.212Z,105.78
2024-02-29T02:49:28.583Z,103.90
2024-02-29T02:50:03.407Z,104.68
2024-02-29T02:50:36.735Z,103.65
2024-02-29T02:51:09.966Z,105.28
2024-02-29T02:51:43.177Z,102.55
2024-02-29T02:52:16.680Z,103.70
2024-02-29T02:52:49.907Z,106.20
2024-02-29T02:53:23.085Z,104.90
2024-02-29T02:53:56.677Z,103.25
2024-02-29T02:54:30.280Z,104.70
2024-02-29T02:55:03.689Z,104.32
2024-02-29T02:55:36.820Z,101.85
2024-02-29T02:56:09.994Z,102.70
2024-02-29T02:56:43.181Z,103.93
2024-02-29T02:57:16.468Z,102.72
2024-02-29T02:57:49.972Z,106.05
2024-02-29T02:58:23.215Z,104.35
2024-02-29T02:58:56.403Z,103.70
2024-02-29T02:59:30.596Z,103.25
2024-02-29T03:00:05.616Z,104.32
2024-02-29T03:00:39.077Z,104.45
2024-02-29T03:01:15.212Z,105.28
2024-02-29T03:01:50.833Z,105.13
2024-02-29T03:02:24.596Z,104.55
2024-02-29T03:02:57.655Z,104.78
2024-02-29T03:03:31.073Z,104.75
2024-02-29T03:04:05.602Z,105.18
2024-02-29T03:04:38.935Z,104.30
2024-02-29T03:05:14.048Z,101.97
2024-02-29T03:05:47.335Z,102.25
2024-02-29T03:06:20.713Z,103.40
2024-02-29T03:06:54.001Z,105.05
2024-02-29T03:07:27.585Z,102.13
2024-02-29T03:08:00.958Z,103.70
2024-02-29T03:08:34.453Z,102.28
2024-02-29T03:09:09.466Z,102.45
2024-02-29T03:09:42.759Z,102.68
2024-02-29T03:10:16.080Z,103.82
2024-02-29T03:10:49.657Z,101.65
2024-02-29T03:11:22.724Z,103.60
2024-02-29T03:11:56.483Z,103.10
2024-02-29T03:12:29.668Z,104.28
2024-02-29T03:13:03.009Z,100.75
2024-02-29T03:13:37.862Z,104.35
2024-02-29T03:14:11.038Z,101.35
2024-02-29T03:14:44.843Z,103.53
2024-02-29T03:15:18.318Z,103.13
2024-02-29T03:15:51.647Z,104.25
2024-02-29T03:16:25.244Z,101.53
2024-02-29T03:16:58.665Z,104.32
2024-02-29T03:17:31.870Z,101.20
2024-02-29T03:18:08.674Z,101.68
2024-02-29T03:18:42.112Z,100.25
2024-02-29T03:19:15.379Z,102.78
2024-02-29T03:19:49.883Z,102.40
2024-02-29T03:20:23.671Z,101.95
2024-02-29T03:20:56.781Z,104.22
2024-02-29T03:21:29.934Z,104.10
2024-02-29T03:22:03.172Z,102.15
2024-02-29T03:22:36.389Z,102.20
2024-02-29T03:23:09.676Z,102.68
2024-02-29T03:23:44.586Z,103.93
2024-02-29T03:24:17.766Z,102.75
2024-02-29T03:24:50.995Z,110.75
2024-02-29T03:25:24.219Z,105.75
2024-02-29T03:25:57.420Z,106.10
2024-02-29T03:26:31.500Z,107.60
2024-02-29T03:27:04.677Z,102.80
2024-02-29T03:27:38.319Z,103.72
2024-02-29T03:28:11.898Z,103.78
2024-02-29T03:28:45.338Z,104.63
2024-02-29T03:29:19.435Z,103.88
2024-02-29T03:29:53.327Z,102.00
2024-02-29T03:30:26.765Z,105.25
2024-02-29T03:31:01.609Z,102.60
2024-02-29T03:31:35.623Z,107.18
2024-02-29T03:32:09.024Z,108.63
2024-02-29T03:32:42.305Z,106.35
2024-02-29T03:33:15.783Z,105.32
2024-02-29T03:33:49.153Z,104.45
2024-02-29T03:34:22.475Z,104.75
2024-02-29T03:34:55.929Z,103.68
2024-02-29T03:35:29.110Z,102.72
2024-02-29T03:36:02.274Z,104.93
2024-02-29T03:36:35.587Z,102.93
2024-02-29T03:37:09.684Z,103.93
2024-02-29T03:37:43.148Z,105.10
2024-02-29T03:38:16.941Z,105.85
2024-02-29T03:38:51.132Z,102.78
2024-02-29T03:39:24.319Z,103.60
2024-02-29T03:39:57.524Z,100.53
2024-02-29T03:40:30.974Z,103.85
2024-02-29T03:41:04.155Z,100.68
2024-02-29T03:41:37.537Z,101.57
2024-02-29T03:42:11.336Z,104.28
2024-02-29T03:42:44.807Z,103.18
2024-02-29T03:43:18.218Z,104.07
2024-02-29T03:43:51.377Z,101.32
2024-02-29T03:44:25.474Z,101.40
2024-02-29T03:44:59.061Z,102.28
2024-02-29T03:45:32.573Z,101.97
2024-02-29T03:46:06.097Z,102.18
2024-02-29T03:46:39.314Z,103.30
2024-02-29T03:47:12.598Z,101.32
2024-02-29T03:47:46.023Z,100.72
2024-02-29T03:48:19.463Z,102.70
2024-02-29T03:48:52.775Z,100.78
2024-02-29T03:49:25.823Z,101.70
2024-02-29T03:49:59.301Z,99.80
2024-02-29T03:50:32.588Z,101.53
2024-02-29T03:51:05.863Z,100.10
2024-02-29T03:51:39.969Z,100.00
2024-02-29T03:52:13.432Z,99.13
2024-02-29T03:52:46.740Z,100.45
2024-02-29T03:53:20.313Z,99.90
2024-02-29T03:53:53.697Z,100.90
2024-02-29T03:54:26.887Z,102.32
2024-02-29T03:55:00.283Z,101.68
2024-02-29T03:55:33.760Z,98.88
2024-02-29T03:56:08.286Z,101.60
2024-02-29T03:56:41.533Z,102.15
2024-02-29T03:57:15.022Z,102.50
2024-02-29T03:57:48.934Z,100.25
2024-02-29T03:58:23.189Z,100.95
2024-02-29T03:58:56.757Z,102.38
2024-02-29T03:59:30.200Z,100.85
2024-02-29T04:00:04.190Z,102.45
2024-02-29T04:00:37.222Z,102.05
2024-02-29T04:01:12.333Z,99.32
2024-02-29T04:01:49.489Z,103.10
2024-02-29T04:02:24.174Z,104.38
2024-02-29T04:02:57.751Z,104.22
2024-02-29T04:03:31.470Z,100.80
2024-02-29T04:04:05.263Z,102.50
2024-02-29T04:04:39.151Z,102.22
2024-02-29T04:05:12.622Z,103.00
2024-02-29T04:05:45.795Z,102.25
2024-02-29T04:06:18.976Z,102.30
2024-02-29T04:06:52.232Z,101.35
2024-02-29T04:07:25.626Z,102.68
2024-02-29T04:08:12.762Z,101.53
2024-02-29T04:08:46.745Z,105.20
2024-02-29T04:09:20.110Z,103.90
2024-02-29T04:09:56.283Z,104.03
2024-02-29T04:10:29.545Z,99.90
2024-02-29T04:11:03.976Z,103.65
2024-02-29T04:11:39.992Z,104.18
2024-02-29T04:12:13.175Z,102.68
2024-02-29T04:12:46.383Z,102.03
2024-02-29T04:13:19.921Z,102.15
2024-02-29T04:13:54.851Z,102.47
2024-02-29T04:14:28.950Z,102.38
2024-02-29T04:15:04.694Z,101.30
2024-02-29T04:15:37.796Z,102.82
2024-02-29T04:16:11.201Z,101.88
2024-02-29T04:16:44.327Z,103.68
2024-02-29T04:17:17.608Z,102.97
2024-02-29T04:17:50.902Z,104.18
2024-02-29T04:18:24.577Z,102.40
2024-02-29T04:18:57.696Z,103.63
2024-02-29T04:19:31.033Z,104.32
2024-02-29T04:20:04.631Z,100.85
2024-02-29T04:20:37.800Z,101.10
2024-02-29T04:21:11.110Z,103.75
2024-02-29T04:21:47.982Z,103.45
2024-02-29T04:22:21.381Z,103.20
2024-02-29T04:22:54.509Z,103.03
2024-02-29T04:23:27.888Z,102.63
2024-02-29T04:24:01.813Z,102.32
2024-02-29T04:24:35.218Z,102.13
2024-02-29T04:25:12.293Z,103.85
2024-02-29T04:25:46.778Z,105.60
2024-02-29T04:26:20.228Z,104.40
2024-02-29T04:26:53.607Z,103.40
2024-02-29T04:27:26.688Z,103.45
2024-02-29T04:28:00.082Z,103.60
2024-02-29T04:28:34.691Z,104.68
2024-02-29T04:29:07.967Z,104.10
2024-02-29T04:29:41.141Z,102.38
2024-02-29T04:30:14.414Z,105.32
2024-02-29T04:30:47.687Z,104.85
2024-02-29T04:31:22.477Z,104.78
2024-02-29T04:31:55.805Z,104.45
2024-02-29T04:32:29.080Z,106.07
2024-02-29T04:33:02.270Z,105.65
2024-02-29T04:33:35.612Z,104.03
2024-02-29T04:34:09.081Z,105.28
2024-02-29T04:34:43.216Z,106.32
2024-02-29T04:35:16.699Z,103.85
2024-02-29T04:35:49.884Z,105.72
2024-02-29T04:36:23.366Z,105.05
2024-02-29T04:36:57.090Z,105.43
2024-02-29T04:37:30.434Z,106.15
2024-02-29T04:38:03.636Z,103.35
2024-02-29T04:38:36.892Z,104.07
2024-02-29T04:39:10.071Z,105.10
2024-02-29T04:39:43.470Z,105.32
2024-02-29T04:40:16.991Z,105.95
2024-02-29T04:40:50.117Z,103.78
2024-02-29T04:41:23.399Z,105.03
2024-02-29T04:41:56.574Z,103.93
2024-02-29T04:42:29.855Z,103.25
2024-02-29T04:43:03.280Z,102.90
2024-02-29T04:43:36.619Z,106.43
2024-02-29T04:44:09.802Z,105.88
2024-02-29T04:44:43.082Z,107.90
2024-02-29T04:45:16.264Z,105.95
2024-02-29T04:45:49.827Z,104.85
2024-02-29T04:46:23.225Z,104.10
2024-02-29T04:46:56.415Z,105.18
2024-02-29T04:47:29.957Z,104.50
2024-02-29T04:48:03.231Z,104.78
2024-02-29T04:48:36.623Z,103.60
2024-02-29T04:49:10.010Z,105.60
2024-02-29T04:49:43.232Z,104.07
2024-02-29T04:50:16.599Z,104.45
2024-02-29T04:50:50.086Z,106.40
2024-02-29T04:51:23.269Z,104.50
2024-02-29T04:51:56.485Z,102.95
2024-02-29T04:52:29.926Z,102.50
2024-02-29T04:53:03.023Z,103.90
2024-02-29T04:53:36.279Z,102.75
2024-02-29T04:54:09.559Z,103.35
2024-02-29T04:54:42.854Z,103.80
2024-02-29T04:55:16.326Z,102.43
2024-02-29T04:55:49.605Z,104.18
2024-02-29T04:56:22.781Z,103.95
2024-02-29T04:56:55.965Z,103.25
2024-02-29T04:57:29.241Z,102.05
2024-02-29T04:58:02.436Z,103.72
2024-02-29T04:58:35.695Z,101.25
2024-02-29T04:59:09.387Z,101.18
2024-02-29T04:59:42.669Z,100.03
2024-02-29T05:00:16.807Z,99.90
2024-02-29T05:00:50.329Z,100.82
2024-02-29T05:01:23.907Z,102.60
2024-02-29T05:01:57.540Z,104.18
2024-02-29T05:02:30.914Z,101.00
2024-02-29T05:03:04.517Z,107.15
2024-02-29T05:03:37.704Z,108.70
2024-02-29T05:04:11.261Z,101.03
2024-02-29T05:04:44.749Z,105.10
2024-02-29T05:05:17.948Z,102.47
2024-02-29T05:05:51.924Z,103.55
2024-02-29T05:06:24.903Z,100.32
2024-02-29T05:06:58.346Z,101.70
2024-02-29T05:07:32.481Z,103.55
2024-02-29T05:08:05.967Z,102.90
2024-02-29T05:08:39.359Z,102.60
2024-02-29T05:09:13.258Z,102.63
2024-02-29T05:09:46.565Z,101.78
2024-02-29T05:10:20.224Z,103.07
2024-02-29T05:10:56.184Z,101.50
2024-02-29T05:11:30.879Z,105.60
2024-02-29T05:12:04.161Z,103.13
2024-02-29T05:12:37.801Z,104.00
2024-02-29T05:13:11.084Z,104.78
2024-02-29T05:13:44.506Z,103.90
2024-02-29T05:14:17.989Z,105.68
2024-02-29T05:14:51.371Z,104.53
2024-02-29T05:15:24.977Z,104.20
2024-02-29T05:15:58.370Z,105.45
2024-02-29T05:16:31.622Z,105.32
2024-02-29T05:17:05.015Z,105.85
2024-02-29T05:17:39.275Z,105.00
2024-02-29T05:18:12.664Z,104.82
2024-02-29T05:18:46.172Z,108.00
2024-02-29T05:19:19.666Z,105.82
2024-02-29T05:19:53.973Z,104.90
2024-02-29T05:20:29.297Z,105.20
2024-02-29T05:21:02.678Z,104.68
2024-02-29T05:21:35.888Z,106.32
2024-02-29T05:22:09.385Z,104.43
2024-02-29T05:22:43.029Z,102.72
2024-02-29T05:23:16.204Z,102.68
2024-02-29T05:23:49.689Z,105.75
2024-02-29T05:24:23.082Z,103.82
2024-02-29T05:24:57.736Z,104.20
2024-02-29T05:25:30.965Z,103.70
2024-02-29T05:26:06.708Z,103.65
2024-02-29T05:26:39.995Z,105.30
2024-02-29T05:27:13.169Z,116.78
2024-02-29T05:27:46.346Z,106.72
2024-02-29T05:28:19.794Z,108.25
2024-02-29T05:28:55.271Z,108.15
2024-02-29T05:29:30.378Z,105.47
2024-02-29T05:30:04.168Z,108.05
2024-02-29T05:30:37.394Z,106.53
2024-02-29T05:31:11.188Z,104.43
2024-02-29T05:31:50.263Z,105.85
2024-02-29T05:32:23.534Z,105.10
2024-02-29T05:32:56.891Z,105.95
2024-02-29T05:33:30.298Z,105.07
2024-02-29T05:34:03.713Z,101.70
2024-02-29T05:34:36.969Z,101.43
2024-02-29T05:35:10.456Z,100.88
2024-02-29T05:35:43.734Z,99.72
2024-02-29T05:36:17.111Z,99.80
2024-02-29T05:36:50.334Z,100.72
2024-02-29T05:37:23.754Z,99.35
2024-02-29T05:37:59.506Z,101.25
2024-02-29T05:38:32.922Z,101.50
2024-02-29T05:39:06.996Z,98.05
2024-02-29T05:39:40.289Z,99.72
2024-02-29T05:40:14.684Z,99.35
2024-02-29T05:40:48.931Z,99.22
2024-02-29T05:41:22.279Z,99.40
2024-02-29T05:41:57.697Z,98.97
2024-02-29T05:42:30.876Z,97.88
2024-02-29T05:43:05.299Z,97.70
2024-02-29T05:43:38.669Z,98.03
2024-02-29T05:44:11.948Z,97.38
2024-02-29T05:44:47.067Z,100.57
2024-02-29T05:45:20.451Z,99.13
2024-02-29T05:45:53.917Z,97.65
2024-02-29T05:46:27.218Z,99.75
2024-02-29T05:47:00.600Z,100.72
2024-02-29T05:47:33.811Z,98.75
2024-02-29T05:48:07.219Z,97.63
2024-02-29T05:48:41.212Z,98.13
2024-02-29T05:49:14.825Z,99.50
2024-02-29T05:49:48.239Z,99.75
2024-02-29T05:50:21.512Z,98.63
2024-02-29T05:50:54.587Z,100.03
2024-02-29T05:51:27.961Z,98.57
2024-02-29T05:52:01.113Z,99.82
2024-02-29T05:52:34.424Z,99.95
2024-02-29T05:53:07.706Z,100.40
2024-02-29T05:53:40.991Z,98.95
2024-02-29T05:54:14.265Z,99.20
2024-02-29T05:54:47.484Z,99.13
2024-02-29T05:55:20.869Z,101.60
2024-02-29T05:56:02.324Z,97.65
2024-02-29T05:56:37.950Z,99.93
2024-02-29T05:57:11.318Z,99.75
2024-02-29T05:57:44.420Z,99.38
2024-02-29T05:58:19.968Z,101.68
2024-02-29T05:58:54.435Z,101.47
2024-02-29T05:59:27.816Z,99.18
2024-02-29T06:00:02.223Z,99.60
2024-02-29T06:00:43.677Z,100.05
2024-02-29T06:01:17.286Z,100.28
2024-02-29T06:01:51.082Z,100.22
2024-02-29T06:02:24.456Z,100.50
2024-02-29T06:02:58.456Z,99.90
2024-02-29T06:03:31.737Z,98.38
2024-02-29T06:04:05.115Z,100.97
2024-02-29T06:04:40.611Z,100.22
2024-02-29T06:05:14.036Z,98.15
2024-02-29T06:05:47.317Z,100.53
2024-02-29T06:06:20.693Z,98.82
2024-02-29T06:06:53.924Z,99.07
2024-02-29T06:07:27.485Z,99.70
2024-02-29T06:08:00.840Z,99.65
2024-02-29T06:08:34.126Z,97.97
2024-02-29T06:09:07.603Z,99.75
2024-02-29T06:09:43.078Z,99.68
2024-02-29T06:10:16.428Z,98.43
2024-02-29T06:10:50.707Z,98.75
2024-02-29T06:11:23.983Z,98.30
2024-02-29T06:11:57.385Z,99.53
2024-02-29T06:12:32.208Z,99.43
2024-02-29T06:13:05.820Z,98.63
2024-02-29T06:13:41.029Z,100.07
2024-02-29T06:14:14.442Z,98.40
2024-02-29T06:14:49.126Z,98.78
2024-02-29T06:15:22.288Z,100.47
2024-02-29T06:15:55.531Z,100.55
2024-02-29T06:16:29.262Z,99.25
2024-02-29T06:17:04.074Z,99.18
2024-02-29T06:17:37.272Z,100.57
2024-02-29T06:18:11.940Z,100.15
2024-02-29T06:18:48.240Z,98.97
2024-02-29T06:19:21.741Z,102.38
2024-02-29T06:19:55.087Z,100.13
2024-02-29T06:20:28.470Z,99.75
2024-02-29T06:21:01.646Z,101.55
2024-02-29T06:21:34.973Z,99.97
2024-02-29T06:22:08.606Z,98.88
2024-02-29T06:22:42.315Z,99.10
2024-02-29T06:23:15.493Z,100.35
2024-02-29T06:23:49.581Z,98.65
2024-02-29T06:24:22.759Z,96.95
2024-02-29T06:24:56.165Z,99.05
2024-02-29T06:25:29.521Z,97.93
2024-02-29T06:26:02.912Z,97.47
2024-02-29T06:26:36.800Z,97.65
2024-02-29T06:27:10.907Z,98.78
2024-02-29T06:27:44.202Z,95.80
2024-02-29T06:28:21.926Z,97.90
2024-02-29T06:28:57.213Z,99.32
2024-02-29T06:29:30.474Z,97.40
2024-02-29T06:30:05.815Z,96.00
2024-02-29T06:30:39.121Z,98.65
2024-02-29T06:31:12.423Z,97.03
2024-02-29T06:31:45.645Z,97.57
2024-02-29T06:32:19.025Z,99.43
2024-02-29T06:32:52.359Z,100.40
2024-02-29T06:33:26.980Z,98.05
2024-02-29T06:34:00.130Z,99.45
2024-02-29T06:34:33.679Z,99.55
2024-02-29T06:35:06.965Z,98.55
2024-02-29T06:35:40.350Z,97.70
2024-02-29T06:36:13.519Z,99.63
2024-02-29T06:36:47.352Z,99.57
2024-02-29T06:37:20.754Z,99.63
2024-02-29T06:37:54.128Z,100.00
2024-02-29T06:38:27.318Z,100.65
2024-02-29T06:39:00.535Z,98.43
2024-02-29T06:39:34.295Z,100.47
2024-02-29T06:40:13.182Z,100.65
2024-02-29T06:40:47.484Z,101.78
2024-02-29T06:41:20.624Z,98.88
2024-02-29T06:41:54.021Z,101.60
2024-02-29T06:42:27.493Z,100.50
2024-02-29T06:43:01.240Z,101.93
2024-02-29T06:43:34.493Z,104.15
2024-02-29T06:44:08.867Z,106.55
2024-02-29T06:44:42.250Z,100.78
2024-02-29T06:45:15.555Z,102.15
2024-02-29T06:45:49.799Z,101.97
2024-02-29T06:46:23.360Z,103.68
2024-02-29T06:46:56.804Z,102.05
2024-02-29T06:47:30.016Z,100.93
2024-02-29T06:48:03.317Z,100.18
2024-02-29T06:48:38.311Z,101.63
2024-02-29T06:49:11.821Z,101.43
2024-02-29T06:49:44.945Z,101.97
2024-02-29T06:50:18.223Z,98.28
2024-02-29T06:50:51.400Z,100.95
2024-02-29T06:51:24.989Z,101.35
2024-02-29T06:51:58.446Z,101.05
2024-02-29T06:52:31.757Z,100.20
2024-02-29T06:53:05.340Z,100.57
2024-02-29T06:53:38.521Z,101.40
2024-02-29T06:54:11.702Z,100.10
2024-02-29T06:54:45.853Z,98.90
2024-02-29T06:55:19.842Z,98.90
2024-02-29T06:55:53.391Z,97.90
2024-02-29T06:56:26.562Z,101.05
2024-02-29T06:57:00.264Z,99.38
2024-02-29T06:57:33.465Z,99.70
2024-02-29T06:58:07.163Z,97.35
2024-02-29T06:58:40.523Z,99.35
2024-02-29T06:59:16.034Z,99.97
2024-02-29T06:59:51.876Z,98.53
2024-02-29T07:00:27.816Z,100.72
2024-02-29T07:01:02.002Z,98.55
2024-02-29T07:01:35.956Z,98.80
2024-02-29T07:02:09.541Z,98.32
2024-02-29T07:02:42.982Z,99.13
2024-02-29T07:03:16.366Z,98.65
2024-02-29T07:03:49.583Z,98.88